Time;durP1;ratioP1;P1;durP2;ratioP2;P2;SDS_P1;SDS_P2;PMS_P1;PMS_P2;Temp;Humidity;BMP_temperature;BMP_pressure;BME280_temperature;BME280_humidity;BME280_pressure;Samples;Min_cycle;Max_cycle;Signal;HPM_P1;HPM_P2
2022/10/21 00:00:41;;;;;;;8.68;7.32;;;;;;;;;;5203692;28;20482;-64
2022/10/21 00:03:11;;;;;;;12.00;7.00;;;;;;;;;;5203688;28;20018;-65
2022/10/21 00:05:42;;;;;;;8.15;6.90;;;;;;;;;;5205162;28;20104;-65
2022/10/21 00:08:12;;;;;;;8.90;7.40;;;;;;;;;;5203992;28;20020;-64
2022/10/21 00:10:43;;;;;;;7.93;7.10;;;;;;;;;;5203563;28;20385;-63
2022/10/21 00:13:13;;;;;;;12.98;6.80;;;;;;;;;;5203591;28;20022;-65
2022/10/21 00:15:43;;;;;;;9.07;6.72;;;;;;;;;;5203636;28;20025;-65
2022/10/21 00:18:14;;;;;;;6.85;6.25;;;;;;;;;;5203476;28;20504;-65
2022/10/21 00:20:44;;;;;;;7.57;6.88;;;;;;;;;;5203544;28;20136;-65
2022/10/21 00:23:14;;;;;;;7.10;6.57;;;;;;;;;;5203430;28;20029;-65
2022/10/21 00:25:44;;;;;;;8.02;6.22;;;;;;;;;;5203317;28;20025;-65
2022/10/21 00:28:15;;;;;;;6.32;6.03;;;;;;;;;;5204698;28;20104;-64
2022/10/21 00:30:45;;;;;;;6.10;5.63;;;;;;;;;;5207705;28;20382;-65
2022/10/21 00:33:15;;;;;;;7.05;6.32;;;;;;;;;;5207614;28;20021;-65
2022/10/21 00:35:52;;;;;;;6.88;6.25;;;;;;;;;;5207518;28;20053;-65
2022/10/21 00:38:23;;;;;;;5.38;4.97;;;;;;;;;;5207125;28;20138;-63
2022/10/21 00:40:54;;;;;;;5.88;5.28;;;;;;;;;;5207483;28;20059;-65
2022/10/21 00:43:24;;;;;;;7.10;6.40;;;;;;;;;;5207277;28;20025;-63
2022/10/21 00:45:58;;;;;;;6.50;6.05;;;;;;;;;;5207349;28;20031;-64
2022/10/21 00:48:31;;;;;;;6.15;5.63;;;;;;;;;;5208636;28;20022;-65
2022/10/21 00:51:04;;;;;;;6.68;6.05;;;;;;;;;;5207640;28;20122;-63
2022/10/21 00:53:36;;;;;;;7.07;6.32;;;;;;;;;;5207070;28;20021;-62
2022/10/21 00:56:08;;;;;;;8.70;5.25;;;;;;;;;;5207398;28;20049;-64
2022/10/21 00:58:38;;;;;;;5.85;5.45;;;;;;;;;;5207457;28;20115;-65
2022/10/21 01:01:08;;;;;;;7.43;6.22;;;;;;;;;;5207226;28;20030;-65
2022/10/21 01:03:39;;;;;;;5.70;5.22;;;;;;;;;;5207059;28;20049;-65
2022/10/21 01:06:10;;;;;;;5.53;5.03;;;;;;;;;;5207186;28;20030;-63
2022/10/21 01:08:40;;;;;;;4.03;3.83;;;;;;;;;;5207222;28;20042;-64
2022/10/21 01:11:12;;;;;;;6.13;5.60;;;;;;;;;;5206722;28;20026;-65
2022/10/21 01:13:48;;;;;;;6.28;5.88;;;;;;;;;;5206716;28;20013;-63
2022/10/21 01:16:21;;;;;;;5.32;5.07;;;;;;;;;;5208185;28;20036;-65
2022/10/21 01:19:05;;;;;;;6.03;4.85;;;;;;;;;;5208264;28;20371;-65
2022/10/21 01:21:41;;;;;;;7.03;6.47;;;;;;;;;;5206739;28;20545;-64
2022/10/21 01:24:21;;;;;;;4.55;4.28;;;;;;;;;;5206711;28;20520;-63
2022/10/21 01:27:00;;;;;;;5.70;5.32;;;;;;;;;;5206748;28;20549;-63
2022/10/21 01:29:45;;;;;;;9.85;5.07;;;;;;;;;;5206588;28;20037;-65
2022/10/21 01:32:15;;;;;;;4.82;4.53;;;;;;;;;;5206332;28;20025;-65
2022/10/21 01:34:46;;;;;;;4.57;4.38;;;;;;;;;;5206413;28;20022;-65
2022/10/21 01:37:16;;;;;;;4.80;4.60;;;;;;;;;;5206575;28;20056;-62
2022/10/21 01:39:50;;;;;;;5.30;4.90;;;;;;;;;;5206301;28;20029;-64
2022/10/21 01:42:20;;;;;;;6.03;4.85;;;;;;;;;;5206469;28;20040;-63
2022/10/21 01:44:50;;;;;;;5.85;5.45;;;;;;;;;;5206169;28;20030;-65
2022/10/21 01:47:24;;;;;;;7.57;6.88;;;;;;;;;;5206601;28;20052;-65
2022/10/21 01:49:56;;;;;;;4.88;4.57;;;;;;;;;;5205977;28;20021;-65
2022/10/21 01:52:28;;;;;;;6.57;5.57;;;;;;;;;;5207534;28;20049;-65
2022/10/21 01:55:01;;;;;;;6.47;5.57;;;;;;;;;;5205198;28;20033;-65
2022/10/21 01:57:40;;;;;;;6.45;6.05;;;;;;;;;;5207429;28;20060;-65
2022/10/21 02:00:10;;;;;;;7.75;4.57;;;;;;;;;;5206221;28;20388;-65
2022/10/21 02:02:47;;;;;;;5.38;5.07;;;;;;;;;;5205753;28;20029;-64
2022/10/21 02:05:20;;;;;;;4.22;4.00;;;;;;;;;;5205740;28;20025;-65
2022/10/21 02:07:50;;;;;;;6.00;5.43;;;;;;;;;;5205775;28;20029;-65
2022/10/21 02:10:22;;;;;;;7.00;6.30;;;;;;;;;;5205609;28;20044;-65
2022/10/21 02:12:54;;;;;;;5.65;5.25;;;;;;;;;;5206347;28;20531;-65
2022/10/21 02:15:24;;;;;;;4.68;4.38;;;;;;;;;;5205531;28;20032;-65
2022/10/21 02:18:02;;;;;;;6.18;5.68;;;;;;;;;;5205669;28;20025;-65
2022/10/21 02:20:36;;;;;;;4.85;4.45;;;;;;;;;;5205117;28;20029;-65
2022/10/21 02:23:08;;;;;;;4.68;4.30;;;;;;;;;;5205530;28;20027;-65
2022/10/21 02:25:39;;;;;;;5.75;5.32;;;;;;;;;;5206559;28;20021;-64
2022/10/21 02:28:10;;;;;;;6.05;4.38;;;;;;;;;;5206899;28;20390;-65
2022/10/21 02:31:00;;;;;;;5.57;4.10;;;;;;;;;;5205250;28;20021;-65
2022/10/21 02:33:50;;;;;;;5.75;4.82;;;;;;;;;;5164756;28;20085;-64
2022/10/21 02:36:37;;;;;;;9.38;6.30;;;;;;;;;;5205349;28;20031;-64
2022/10/21 02:39:12;;;;;;;6.07;5.65;;;;;;;;;;5205140;28;20026;-62
2022/10/21 02:41:43;;;;;;;7.00;5.75;;;;;;;;;;5204910;28;20036;-64
2022/10/21 02:44:13;;;;;;;6.30;5.85;;;;;;;;;;5204767;28;20026;-64
2022/10/21 02:46:45;;;;;;;5.65;5.30;;;;;;;;;;5205038;28;20021;-64
2022/10/21 02:49:15;;;;;;;5.63;5.25;;;;;;;;;;5205259;28;20367;-64
2022/10/21 02:51:46;;;;;;;6.88;5.70;;;;;;;;;;5204622;28;20067;-62
2022/10/21 02:54:16;;;;;;;7.22;6.63;;;;;;;;;;5204957;28;20029;-64
2022/10/21 02:56:46;;;;;;;5.80;5.38;;;;;;;;;;5204873;28;20021;-65
2022/10/21 02:59:16;;;;;;;5.97;5.40;;;;;;;;;;5204639;28;20062;-64
2022/10/21 03:01:47;;;;;;;5.53;5.13;;;;;;;;;;5205750;28;20067;-64
2022/10/21 03:04:17;;;;;;;5.63;5.05;;;;;;;;;;5204150;28;20021;-64
2022/10/21 03:06:47;;;;;;;5.15;4.93;;;;;;;;;;5204604;28;20051;-64
2022/10/21 03:09:18;;;;;;;5.38;4.80;;;;;;;;;;5204702;28;20028;-64
2022/10/21 03:11:48;;;;;;;6.50;5.72;;;;;;;;;;5204756;28;20398;-64
2022/10/21 03:14:18;;;;;;;7.05;6.40;;;;;;;;;;5204288;28;20056;-64
2022/10/21 03:16:48;;;;;;;5.07;4.78;;;;;;;;;;5204402;28;20371;-64
2022/10/21 03:19:19;;;;;;;4.60;4.25;;;;;;;;;;5204613;28;20022;-64
2022/10/21 03:21:49;;;;;;;6.18;5.65;;;;;;;;;;5204593;28;20108;-64
2022/10/21 03:24:19;;;;;;;4.97;4.78;;;;;;;;;;5204171;28;20388;-65
2022/10/21 03:26:50;;;;;;;5.72;5.22;;;;;;;;;;5204529;28;20389;-65
2022/10/21 03:29:20;;;;;;;4.90;4.38;;;;;;;;;;5204198;28;20018;-64
2022/10/21 03:31:50;;;;;;;7.68;4.38;;;;;;;;;;5204523;28;20397;-64
2022/10/21 03:34:20;;;;;;;5.10;4.70;;;;;;;;;;5204411;28;20025;-64
2022/10/21 03:36:51;;;;;;;4.82;4.32;;;;;;;;;;5204187;28;20167;-62
2022/10/21 03:39:21;;;;;;;4.57;4.18;;;;;;;;;;5205689;28;20028;-64
2022/10/21 03:41:51;;;;;;;5.53;5.13;;;;;;;;;;5206320;28;20107;-64
2022/10/21 03:44:21;;;;;;;4.80;4.40;;;;;;;;;;5204378;28;20028;-64
2022/10/21 03:46:52;;;;;;;9.23;4.25;;;;;;;;;;5205376;28;20021;-65
2022/10/21 03:49:22;;;;;;;4.65;4.28;;;;;;;;;;5203810;28;20017;-63
2022/10/21 03:51:52;;;;;;;5.05;4.65;;;;;;;;;;5203535;28;20104;-64
2022/10/21 03:54:23;;;;;;;4.70;3.60;;;;;;;;;;5203725;28;20358;-64
2022/10/21 03:56:53;;;;;;;4.15;3.83;;;;;;;;;;5203647;28;20017;-64
2022/10/21 03:59:23;;;;;;;11.38;4.13;;;;;;;;;;5203782;28;20476;-63
2022/10/21 04:01:53;;;;;;;3.78;3.58;;;;;;;;;;5203476;28;20036;-64
2022/10/21 04:04:24;;;;;;;4.97;4.65;;;;;;;;;;5203373;28;20070;-64
2022/10/21 04:06:54;;;;;;;5.00;4.53;;;;;;;;;;5203624;28;20025;-64
2022/10/21 04:09:24;;;;;;;6.57;4.10;;;;;;;;;;5203987;28;20108;-64
2022/10/21 04:11:55;;;;;;;3.83;3.55;;;;;;;;;;5203634;28;20063;-64
2022/10/21 04:14:25;;;;;;;6.28;4.18;;;;;;;;;;5202111;28;20494;-66
2022/10/21 04:16:55;;;;;;;3.88;3.67;;;;;;;;;;5203634;28;20072;-66
2022/10/21 04:19:25;;;;;;;5.95;5.35;;;;;;;;;;5203416;28;20458;-65
2022/10/21 04:21:56;;;;;;;7.57;4.15;;;;;;;;;;5203007;28;20104;-65
2022/10/21 04:24:26;;;;;;;5.05;4.50;;;;;;;;;;5203193;28;20021;-64
2022/10/21 04:26:56;;;;;;;7.07;4.32;;;;;;;;;;5203133;28;20057;-65
2022/10/21 04:29:26;;;;;;;5.85;4.35;;;;;;;;;;5204742;28;20017;-64
2022/10/21 04:31:57;;;;;;;3.08;2.97;;;;;;;;;;5203299;28;20032;-65
2022/10/21 04:34:27;;;;;;;4.32;3.70;;;;;;;;;;5204296;28;20462;-65
2022/10/21 04:36:57;;;;;;;3.70;3.13;;;;;;;;;;5204598;28;20104;-65
2022/10/21 04:39:28;;;;;;;4.53;3.72;;;;;;;;;;5204440;28;20030;-64
2022/10/21 04:41:58;;;;;;;3.35;3.15;;;;;;;;;;5202846;28;20065;-63
2022/10/21 04:44:28;;;;;;;5.60;5.00;;;;;;;;;;5202972;28;20025;-64
2022/10/21 04:46:58;;;;;;;7.63;4.82;;;;;;;;;;5202913;28;20520;-64
2022/10/21 04:49:29;;;;;;;3.55;3.35;;;;;;;;;;5202952;28;20087;-64
2022/10/21 04:52:02;;;;;;;6.68;4.53;;;;;;;;;;5203022;28;20167;-65
2022/10/21 04:54:33;;;;;;;3.88;3.67;;;;;;;;;;5202973;28;20030;-64
2022/10/21 04:57:03;;;;;;;4.15;3.85;;;;;;;;;;5203141;28;20033;-65
2022/10/21 04:59:33;;;;;;;7.93;3.83;;;;;;;;;;5204178;28;20029;-65
2022/10/21 05:02:07;;;;;;;11.60;3.97;;;;;;;;;;5203049;28;20030;-64
2022/10/21 05:04:37;;;;;;;3.95;3.60;;;;;;;;;;5202555;28;20053;-61
2022/10/21 05:07:07;;;;;;;5.97;3.25;;;;;;;;;;5203148;28;20057;-62
2022/10/21 05:09:37;;;;;;;8.35;2.83;;;;;;;;;;5203132;28;20025;-63
2022/10/21 05:12:08;;;;;;;4.93;3.65;;;;;;;;;;5202690;28;20022;-64
2022/10/21 05:14:38;;;;;;;4.43;3.13;;;;;;;;;;5198101;28;20045;-62
2022/10/21 05:17:11;;;;;;;4.35;3.95;;;;;;;;;;5206296;28;20021;-64
2022/10/21 05:19:42;;;;;;;6.65;3.88;;;;;;;;;;5205583;28;20068;-64
2022/10/21 05:22:12;;;;;;;3.70;3.50;;;;;;;;;;5201315;28;20045;-63
2022/10/21 05:24:42;;;;;;;14.90;5.53;;;;;;;;;;5186816;28;20021;-64
2022/10/21 05:27:12;;;;;;;4.00;3.63;;;;;;;;;;5207437;28;20135;-62
2022/10/21 05:29:43;;;;;;;7.40;4.40;;;;;;;;;;5189964;28;20362;-62
2022/10/21 05:32:13;;;;;;;5.43;4.90;;;;;;;;;;5200413;28;20060;-63
2022/10/21 05:34:43;;;;;;;5.25;4.10;;;;;;;;;;5205897;28;20018;-64
2022/10/21 05:37:14;;;;;;;6.30;4.90;;;;;;;;;;5205695;28;20021;-64
2022/10/21 05:39:44;;;;;;;5.63;5.10;;;;;;;;;;5196507;28;20025;-65
2022/10/21 05:42:14;;;;;;;8.80;6.20;;;;;;;;;;5189553;28;20037;-63
2022/10/21 05:44:44;;;;;;;8.07;5.88;;;;;;;;;;5189164;28;20440;-64
2022/10/21 05:47:15;;;;;;;8.68;5.22;;;;;;;;;;5189847;28;20075;-64
2022/10/21 05:49:45;;;;;;;12.10;7.32;;;;;;;;;;5189682;28;20052;-64
2022/10/21 05:52:15;;;;;;;5.30;4.82;;;;;;;;;;5207505;28;20064;-64
2022/10/21 05:54:46;;;;;;;6.40;5.80;;;;;;;;;;5206214;28;20057;-64
2022/10/21 06:00:07;;;;;;;4.20;3.72;;;;;;;;;;5256087;28;20041;-66
2022/10/21 06:02:37;;;;;;;4.78;4.22;;;;;;;;;;5229433;28;20064;-66
2022/10/21 06:05:08;;;;;;;3.85;3.65;;;;;;;;;;5230917;28;20016;-66
2022/10/21 06:07:38;;;;;;;4.10;3.72;;;;;;;;;;5230775;28;20070;-66
2022/10/21 06:10:10;;;;;;;5.00;4.07;;;;;;;;;;5230631;28;20016;-64
2022/10/21 06:12:41;;;;;;;7.53;3.47;;;;;;;;;;5230890;28;20020;-65
2022/10/21 06:15:11;;;;;;;5.85;4.68;;;;;;;;;;5231074;28;20088;-64
2022/10/21 06:17:42;;;;;;;7.25;4.60;;;;;;;;;;5230605;28;20423;-65
2022/10/21 06:20:12;;;;;;;5.68;4.47;;;;;;;;;;5231264;28;20070;-65
2022/10/21 06:22:42;;;;;;;5.68;5.03;;;;;;;;;;5230671;28;20024;-65
2022/10/21 06:25:13;;;;;;;10.95;4.72;;;;;;;;;;5230011;28;20039;-63
2022/10/21 06:27:43;;;;;;;4.15;3.65;;;;;;;;;;5248171;28;20468;-64
2022/10/21 06:30:13;;;;;;;4.00;3.70;;;;;;;;;;5231307;28;20056;-64
2022/10/21 06:32:44;;;;;;;5.60;4.82;;;;;;;;;;5230641;28;20016;-65
2022/10/21 06:35:19;;;;;;;3.95;3.75;;;;;;;;;;5213205;28;20017;-65
2022/10/21 06:37:49;;;;;;;5.47;4.43;;;;;;;;;;5230456;28;20438;-63
2022/10/21 06:40:19;;;;;;;3.75;3.38;;;;;;;;;;5230726;28;20046;-66
2022/10/21 06:42:50;;;;;;;5.30;4.45;;;;;;;;;;5231274;28;20021;-64
2022/10/21 06:45:20;;;;;;;7.45;4.28;;;;;;;;;;5248748;28;20434;-66
2022/10/21 06:47:50;;;;;;;4.10;3.80;;;;;;;;;;5230883;28;20027;-63
2022/10/21 06:50:21;;;;;;;4.47;3.85;;;;;;;;;;5230025;28;20093;-65
2022/10/21 06:52:51;;;;;;;5.20;4.53;;;;;;;;;;5230774;28;20020;-65
2022/10/21 06:55:21;;;;;;;8.52;4.07;;;;;;;;;;5230244;28;20456;-65
2022/10/21 06:57:52;;;;;;;5.85;3.72;;;;;;;;;;5230642;28;20031;-64
2022/10/21 07:00:22;;;;;;;6.18;4.43;;;;;;;;;;5230006;28;20078;-65
2022/10/21 07:02:52;;;;;;;7.20;3.90;;;;;;;;;;5230685;28;20048;-65
2022/10/21 07:05:23;;;;;;;7.70;4.55;;;;;;;;;;5229988;28;20020;-64
2022/10/21 07:07:53;;;;;;;5.45;5.05;;;;;;;;;;5230140;28;20056;-65
2022/10/21 07:10:23;;;;;;;5.97;3.40;;;;;;;;;;5230252;28;20043;-65
2022/10/21 07:12:55;;;;;;;7.53;5.53;;;;;;;;;;5230178;28;20078;-65
2022/10/21 07:15:25;;;;;;;4.70;4.20;;;;;;;;;;5230002;28;20358;-65
2022/10/21 07:17:59;;;;;;;5.55;4.60;;;;;;;;;;5230371;28;20078;-66
2022/10/21 07:20:30;;;;;;;6.30;4.93;;;;;;;;;;5230136;28;20020;-65
2022/10/21 07:23:00;;;;;;;4.03;3.50;;;;;;;;;;5247746;28;20067;-65
2022/10/21 07:25:30;;;;;;;5.07;4.78;;;;;;;;;;5229576;28;20024;-65
2022/10/21 07:28:00;;;;;;;9.52;3.80;;;;;;;;;;5228462;28;20040;-64
2022/10/21 07:30:31;;;;;;;4.10;3.78;;;;;;;;;;5229976;28;20023;-68
2022/10/21 07:33:01;;;;;;;5.95;5.13;;;;;;;;;;5229993;28;20012;-64
2022/10/21 07:35:31;;;;;;;6.75;5.90;;;;;;;;;;5229841;28;20028;-64
2022/10/21 07:38:02;;;;;;;6.03;4.93;;;;;;;;;;5229650;28;20059;-63
2022/10/21 07:40:37;;;;;;;7.40;4.57;;;;;;;;;;5229041;28;20073;-63
2022/10/21 07:43:08;;;;;;;4.68;4.32;;;;;;;;;;5230072;28;20020;-63
2022/10/21 07:45:41;;;;;;;6.50;5.03;;;;;;;;;;5229375;28;20021;-64
2022/10/21 07:48:12;;;;;;;3.72;3.35;;;;;;;;;;5229754;28;20017;-64
2022/10/21 07:50:42;;;;;;;4.20;4.00;;;;;;;;;;5229569;28;20073;-63
2022/10/21 07:53:13;;;;;;;5.28;4.07;;;;;;;;;;5247515;28;20460;-63
2022/10/21 07:55:43;;;;;;;3.40;3.20;;;;;;;;;;5228217;28;20012;-64
2022/10/21 07:58:13;;;;;;;7.10;5.00;;;;;;;;;;5229671;28;20038;-64
2022/10/21 08:00:44;;;;;;;4.50;4.10;;;;;;;;;;5229204;28;20016;-63
2022/10/21 08:03:14;;;;;;;23.13;5.25;;;;;;;;;;5229869;28;20070;-64
2022/10/21 08:05:44;;;;;;;6.97;4.85;;;;;;;;;;5229329;28;20040;-64
2022/10/21 08:08:15;;;;;;;9.07;4.60;;;;;;;;;;5247036;28;20025;-63
2022/10/21 08:10:45;;;;;;;8.25;4.38;;;;;;;;;;5229309;28;20020;-64
2022/10/21 08:13:15;;;;;;;5.60;4.88;;;;;;;;;;5229356;28;20239;-64
2022/10/21 08:15:47;;;;;;;5.63;5.22;;;;;;;;;;5229128;28;20040;-64
2022/10/21 08:18:18;;;;;;;3.38;3.17;;;;;;;;;;5229455;28;20472;-63
2022/10/21 08:20:48;;;;;;;5.50;5.00;;;;;;;;;;5229068;28;20019;-64
2022/10/21 08:23:20;;;;;;;5.20;4.90;;;;;;;;;;5229070;28;20373;-63
2022/10/21 08:25:54;;;;;;;5.78;5.28;;;;;;;;;;5229075;28;20074;-63
2022/10/21 08:28:26;;;;;;;8.05;6.18;;;;;;;;;;5229190;28;20369;-64
2022/10/21 08:31:03;;;;;;;5.97;4.70;;;;;;;;;;5227794;28;20021;-64
2022/10/21 08:33:37;;;;;;;8.27;4.05;;;;;;;;;;5228351;28;20077;-64
2022/10/21 08:36:08;;;;;;;5.82;4.85;;;;;;;;;;5229153;28;20024;-66
2022/10/21 08:38:39;;;;;;;5.65;4.90;;;;;;;;;;5229006;28;20034;-64
2022/10/21 08:41:16;;;;;;;5.80;5.40;;;;;;;;;;5246897;28;20062;-64
2022/10/21 08:43:47;;;;;;;5.40;5.00;;;;;;;;;;5228888;28;20553;-65
2022/10/21 08:46:19;;;;;;;5.28;4.75;;;;;;;;;;5228975;28;20020;-64
2022/10/21 08:48:57;;;;;;;8.48;5.13;;;;;;;;;;5229320;28;20603;-63
2022/10/21 08:51:30;;;;;;;5.88;5.40;;;;;;;;;;5233269;28;20551;-63
2022/10/21 08:54:05;;;;;;;11.57;5.07;;;;;;;;;;5251567;28;20020;-64
2022/10/21 08:56:35;;;;;;;9.70;5.30;;;;;;;;;;5251537;28;20024;-63
2022/10/21 08:59:14;;;;;;;7.78;4.22;;;;;;;;;;5250531;28;20031;-64
2022/10/21 09:01:50;;;;;;;5.63;5.10;;;;;;;;;;5233646;28;20473;-62
2022/10/21 09:04:32;;;;;;;4.50;4.10;;;;;;;;;;5232712;28;20047;-64
2022/10/21 09:07:20;;;;;;;4.88;4.53;;;;;;;;;;5232599;28;20115;-63
2022/10/21 09:09:52;;;;;;;5.78;5.45;;;;;;;;;;5231770;28;20020;-64
2022/10/21 09:12:55;;;;;;;5.05;4.60;;;;;;;;;;5232618;28;20066;-64
2022/10/21 09:16:01;;;;;;;4.57;3.67;;;;;;;;;;5199219;28;20028;-64
2022/10/21 09:18:34;;;;;;;6.85;4.95;;;;;;;;;;5166074;28;20018;-64
2022/10/21 09:21:36;;;;;;;7.00;4.05;;;;;;;;;;5219739;28;20507;-68
2022/10/21 09:24:25;;;;;;;5.00;4.68;;;;;;;;;;5198819;28;20032;-64
2022/10/21 09:26:56;;;;;;;6.55;4.35;;;;;;;;;;5232036;28;20032;-64
2022/10/21 09:29:31;;;;;;;6.70;4.80;;;;;;;;;;5250387;28;20016;-64
2022/10/21 09:32:21;;;;;;;5.00;4.30;;;;;;;;;;5232015;28;20020;-64
2022/10/21 09:34:55;;;;;;;5.38;4.53;;;;;;;;;;5231285;28;20028;-64
2022/10/21 09:37:28;;;;;;;5.32;3.75;;;;;;;;;;5231793;28;20020;-64
2022/10/21 09:40:05;;;;;;;5.65;3.55;;;;;;;;;;5232105;28;20534;-64
2022/10/21 09:42:35;;;;;;;7.82;4.30;;;;;;;;;;5248522;28;20025;-64
2022/10/21 09:45:13;;;;;;;5.80;3.50;;;;;;;;;;5231419;28;20074;-64
2022/10/21 09:47:44;;;;;;;16.23;4.30;;;;;;;;;;5249639;28;20115;-67
2022/10/21 09:50:15;;;;;;;5.43;4.93;;;;;;;;;;5231720;28;20103;-64
2022/10/21 09:52:48;;;;;;;3.92;3.20;;;;;;;;;;5231045;28;20024;-65
2022/10/21 09:55:18;;;;;;;4.07;3.83;;;;;;;;;;5249444;28;20024;-64
2022/10/21 09:57:57;;;;;;;4.68;3.35;;;;;;;;;;5231666;28;20392;-64
2022/10/21 10:00:41;;;;;;;4.60;4.30;;;;;;;;;;5230895;28;20028;-64
2022/10/21 10:03:12;;;;;;;8.52;3.03;;;;;;;;;;5249525;28;20028;-64
2022/10/21 10:05:48;;;;;;;9.02;3.67;;;;;;;;;;5231528;28;20031;-64
2022/10/21 10:08:37;;;;;;;4.20;3.67;;;;;;;;;;5231423;28;20039;-64
2022/10/21 10:11:07;;;;;;;2.70;2.60;;;;;;;;;;5231736;28;20120;-63
2022/10/21 10:13:39;;;;;;;3.03;2.70;;;;;;;;;;5231231;28;20357;-64
2022/10/21 10:16:16;;;;;;;2.78;2.67;;;;;;;;;;5231106;28;20470;-64
2022/10/21 10:18:46;;;;;;;3.45;3.25;;;;;;;;;;5231161;28;20128;-64
2022/10/21 10:21:18;;;;;;;2.85;2.65;;;;;;;;;;5230643;28;20103;-66
2022/10/21 10:23:48;;;;;;;2.95;2.67;;;;;;;;;;5230802;28;20063;-65
2022/10/21 10:26:29;;;;;;;6.90;2.67;;;;;;;;;;5230966;28;20051;-65
2022/10/21 10:29:16;;;;;;;1.77;1.70;;;;;;;;;;5230873;28;20021;-64
2022/10/21 10:31:48;;;;;;;2.10;1.88;;;;;;;;;;5231230;28;20017;-64
2022/10/21 10:34:38;;;;;;;2.13;2.03;;;;;;;;;;5230960;28;20555;-64
2022/10/21 10:37:19;;;;;;;1.83;1.73;;;;;;;;;;5247959;28;20543;-64
2022/10/21 10:39:52;;;;;;;1.40;1.40;;;;;;;;;;5230958;28;20052;-65
2022/10/21 10:42:27;;;;;;;8.85;2.28;;;;;;;;;;5230836;28;20052;-64
2022/10/21 10:44:59;;;;;;;1.55;1.55;;;;;;;;;;5230596;28;20499;-65
2022/10/21 10:47:36;;;;;;;1.83;1.73;;;;;;;;;;5230452;28;20020;-65
2022/10/21 10:50:27;;;;;;;1.95;1.52;;;;;;;;;;5230550;28;20107;-65
2022/10/21 10:53:20;;;;;;;1.70;1.63;;;;;;;;;;5248393;28;20025;-66
2022/10/21 10:56:09;;;;;;;1.48;1.40;;;;;;;;;;5217829;28;20029;-65
2022/10/21 10:58:42;;;;;;;1.70;1.42;;;;;;;;;;5230221;28;20168;-66
2022/10/21 11:01:17;;;;;;;2.25;1.67;;;;;;;;;;5248371;28;20067;-65
2022/10/21 11:03:54;;;;;;;1.38;1.35;;;;;;;;;;5230253;28;20020;-66
2022/10/21 11:06:34;;;;;;;1.42;1.42;;;;;;;;;;5230187;28;20020;-66
2022/10/21 11:09:05;;;;;;;1.23;1.23;;;;;;;;;;5230156;28;20107;-65
2022/10/21 11:11:38;;;;;;;1.50;1.50;;;;;;;;;;5229151;28;20016;-65
2022/10/21 11:14:17;;;;;;;8.82;1.90;;;;;;;;;;5230223;28;20385;-65
2022/10/21 11:16:53;;;;;;;2.25;2.05;;;;;;;;;;5230308;28;20039;-65
2022/10/21 11:19:27;;;;;;;1.25;1.25;;;;;;;;;;5230076;28;20020;-65
2022/10/21 11:22:07;;;;;;;2.22;2.03;;;;;;;;;;5230081;28;20100;-65
2022/10/21 11:24:53;;;;;;;2.33;2.22;;;;;;;;;;5230015;28;20447;-67
2022/10/21 11:27:23;;;;;;;1.88;1.77;;;;;;;;;;5229986;28;20107;-65
2022/10/21 11:30:15;;;;;;;2.00;1.90;;;;;;;;;;5229736;28;20120;-65
2022/10/21 11:32:55;;;;;;;1.77;1.67;;;;;;;;;;5229607;28;20623;-65
2022/10/21 11:35:44;;;;;;;1.33;1.33;;;;;;;;;;5229195;28;20101;-65
2022/10/21 11:38:15;;;;;;;2.22;2.15;;;;;;;;;;5229646;28;20024;-65
2022/10/21 11:40:51;;;;;;;1.67;1.67;;;;;;;;;;5229378;28;20031;-66
2022/10/21 11:43:21;;;;;;;2.28;2.08;;;;;;;;;;5247331;28;20073;-65
2022/10/21 11:45:57;;;;;;;1.92;1.83;;;;;;;;;;5229032;28;20111;-66
2022/10/21 11:48:39;;;;;;;1.98;1.98;;;;;;;;;;5229800;28;20111;-66
2022/10/21 11:51:17;;;;;;;1.92;1.85;;;;;;;;;;5229198;28;20023;-66
2022/10/21 11:54:12;;;;;;;2.22;1.77;;;;;;;;;;5229133;28;20020;-65
2022/10/21 11:56:49;;;;;;;2.13;1.95;;;;;;;;;;5229690;28;20549;-66
2022/10/21 12:21:39;;;;;;;1.75;1.70;;;;;;;;;;5752980;23;20048;-79
2022/10/21 12:24:09;;;;;;;1.27;1.27;;;;;;;;;;5221086;28;20024;-81
2022/10/21 12:26:46;;;;;;;3.17;1.77;;;;;;;;;;5230381;28;20406;-79
2022/10/21 12:31:48;;;;;;;4.07;1.67;;;;;;;;;;5238499;28;20049;-83
2022/10/21 12:34:19;;;;;;;1.47;1.47;;;;;;;;;;5243027;28;20489;-83
2022/10/21 12:36:52;;;;;;;1.55;1.55;;;;;;;;;;5215568;28;20622;-82
2022/10/21 12:39:32;;;;;;;2.50;1.88;;;;;;;;;;5232588;28;20017;-83
2022/10/21 12:42:02;;;;;;;;;;;;;;;;;;5211217;28;20060;-83
2022/10/21 12:44:32;;;;;;;3.45;1.77;;;;;;;;;;5192224;28;19916;-83
2022/10/21 12:47:19;;;;;;;2.58;2.35;;;;;;;;;;5193125;28;20022;-86
2022/10/21 12:50:03;;;;;;;2.13;1.98;;;;;;;;;;5210561;28;20018;-82
2022/10/21 12:52:37;;;;;;;2.80;2.42;;;;;;;;;;5211310;28;20095;-81
2022/10/21 12:55:20;;;;;;;4.60;1.88;;;;;;;;;;5210777;28;20494;-81
2022/10/21 12:58:01;;;;;;;2.10;2.00;;;;;;;;;;5212105;28;20119;-81
2022/10/21 13:00:31;;;;;;;10.95;2.53;;;;;;;;;;5210944;28;20083;-79
2022/10/21 13:03:06;;;;;;;1.73;1.63;;;;;;;;;;5212094;28;20047;-81
2022/10/21 13:05:36;;;;;;;3.15;2.85;;;;;;;;;;5192793;28;20121;-82
2022/10/21 13:08:19;;;;;;;2.20;2.10;;;;;;;;;;5211309;28;20057;-82
2022/10/21 13:11:04;;;;;;;2.30;2.20;;;;;;;;;;5209900;28;20260;-81
2022/10/21 13:13:44;;;;;;;1.75;1.65;;;;;;;;;;5210610;28;20597;-82
2022/10/21 13:16:14;;;;;;;1.52;1.42;;;;;;;;;;5210582;28;20025;-82
2022/10/21 13:19:04;;;;;;;2.03;1.93;;;;;;;;;;5211006;28;20072;-82
2022/10/21 13:21:36;;;;;;;2.47;2.22;;;;;;;;;;5210585;28;20075;-81
2022/10/21 13:24:12;;;;;;;2.30;2.13;;;;;;;;;;5210253;28;20022;-82
2022/10/21 13:26:50;;;;;;;2.90;2.70;;;;;;;;;;5193902;28;20080;-82
2022/10/21 13:29:41;;;;;;;3.05;2.72;;;;;;;;;;5211593;28;20017;-82
2022/10/21 13:32:16;;;;;;;2.10;1.90;;;;;;;;;;5196332;28;20109;-81
2022/10/21 13:35:04;;;;;;;2.90;2.38;;;;;;;;;;5220354;28;20148;-81
2022/10/21 13:37:37;;;;;;;7.43;2.07;;;;;;;;;;5207668;28;20026;-82
2022/10/21 13:40:15;;;;;;;2.50;2.30;;;;;;;;;;5224366;28;20268;-82
2022/10/21 13:42:48;;;;;;;1.77;1.63;;;;;;;;;;5220530;28;20029;-81
2022/10/21 13:45:35;;;;;;;2.83;1.55;;;;;;;;;;5203683;28;20025;-80
2022/10/21 13:48:14;;;;;;;1.65;1.63;;;;;;;;;;5220386;28;20375;-81
2022/10/21 13:50:45;;;;;;;2.13;1.90;;;;;;;;;;5217813;28;20097;-81
2022/10/21 13:53:16;;;;;;;2.22;1.40;;;;;;;;;;5210152;28;20009;-81
2022/10/21 13:56:06;;;;;;;3.70;1.53;;;;;;;;;;5211024;28;20021;-81
2022/10/21 13:58:40;;;;;;;1.48;1.38;;;;;;;;;;5212775;28;20328;-82
2022/10/21 14:01:12;;;;;;;2.75;1.83;;;;;;;;;;5211040;28;20337;-80
2022/10/21 14:03:43;;;;;;;2.92;2.60;;;;;;;;;;5193155;28;20033;-81
2022/10/21 14:06:24;;;;;;;3.28;1.40;;;;;;;;;;5207518;28;20025;-81
2022/10/21 14:08:55;;;;;;;1.50;1.50;;;;;;;;;;5211089;28;20048;-82
2022/10/21 14:11:27;;;;;;;2.22;2.03;;;;;;;;;;5211897;28;20010;-80
2022/10/21 14:14:00;;;;;;;2.55;2.45;;;;;;;;;;5215499;28;20028;-81
2022/10/21 14:16:30;;;;;;;1.75;1.65;;;;;;;;;;5231930;28;20028;-83
2022/10/21 14:19:03;;;;;;;2.83;2.23;;;;;;;;;;5230084;28;20112;-81
2022/10/21 14:21:38;;;;;;;1.58;1.48;;;;;;;;;;5234366;28;20298;-81
2022/10/21 14:24:26;;;;;;;1.40;1.40;;;;;;;;;;5231395;28;20475;-81
2022/10/21 14:26:56;;;;;;;1.25;1.15;;;;;;;;;;5232600;28;20037;-80
2022/10/21 14:29:28;;;;;;;1.85;1.75;;;;;;;;;;5214070;28;20020;-81
2022/10/21 14:31:59;;;;;;;1.60;1.60;;;;;;;;;;5232029;28;20399;-80
2022/10/21 14:34:31;;;;;;;3.72;2.00;;;;;;;;;;5213771;28;20058;-81
2022/10/21 14:37:17;;;;;;;2.10;1.70;;;;;;;;;;5232261;28;20021;-80
2022/10/21 14:39:47;;;;;;;1.17;1.17;;;;;;;;;;5226767;28;20017;-80
2022/10/21 14:42:22;;;;;;;4.87;2.60;;;;;;;;;;5230936;28;20036;-80
2022/10/21 14:44:59;;;;;;;1.98;1.92;;;;;;;;;;5211888;28;20306;-80
2022/10/21 14:47:29;;;;;;;1.77;1.67;;;;;;;;;;5210193;28;20044;-81
2022/10/21 14:49:59;;;;;;;2.83;1.77;;;;;;;;;;5229202;28;20013;-80
2022/10/21 14:52:31;;;;;;;1.87;1.77;;;;;;;;;;5229663;28;20017;-80
2022/10/21 14:55:06;;;;;;;2.20;2.10;;;;;;;;;;5202255;28;20109;-79
2022/10/21 14:57:46;;;;;;;1.70;1.70;;;;;;;;;;5208721;28;20091;-78
2022/10/21 15:00:22;;;;;;;2.53;2.17;;;;;;;;;;5190672;28;20022;-80
2022/10/21 15:02:53;;;;;;;2.33;2.00;;;;;;;;;;5208017;28;20506;-80
2022/10/21 15:05:40;;;;;;;2.88;1.80;;;;;;;;;;5207571;28;20025;-80
2022/10/21 15:08:14;;;;;;;1.58;1.55;;;;;;;;;;5190320;28;20014;-80
2022/10/21 15:10:45;;;;;;;1.90;1.80;;;;;;;;;;5209045;28;20022;-81
2022/10/21 15:13:16;;;;;;;2.50;2.25;;;;;;;;;;5208072;28;20024;-80
2022/10/21 15:15:48;;;;;;;1.80;1.70;;;;;;;;;;5208117;28;20025;-81
2022/10/21 15:18:28;;;;;;;2.53;1.92;;;;;;;;;;5189764;28;20074;-80
2022/10/21 15:20:58;;;;;;;;;;;;;;;;;;5190566;28;20036;-80
2022/10/21 15:23:30;;;;;;;2.87;2.00;;;;;;;;;;5188597;28;20252;-81
2022/10/21 15:26:04;;;;;;;2.28;1.65;;;;;;;;;;5207355;28;20026;-81
2022/10/21 15:28:40;;;;;;;1.60;1.60;;;;;;;;;;5208630;28;20071;-82
2022/10/21 15:31:15;;;;;;;1.98;1.77;;;;;;;;;;5206715;28;20052;-82
2022/10/21 15:33:47;;;;;;;3.00;2.75;;;;;;;;;;5209381;28;20018;-80
2022/10/21 15:36:20;;;;;;;1.67;1.67;;;;;;;;;;5209450;28;20029;-80
2022/10/21 15:38:50;;;;;;;3.35;3.05;;;;;;;;;;5208565;28;20041;-81
2022/10/21 15:41:23;;;;;;;5.57;2.33;;;;;;;;;;5208672;28;20028;-80
2022/10/21 15:43:57;;;;;;;1.60;1.42;;;;;;;;;;5207074;28;20025;-80
2022/10/21 15:46:29;;;;;;;3.70;1.60;;;;;;;;;;5189709;28;20017;-81
2022/10/21 15:49:04;;;;;;;7.25;2.30;;;;;;;;;;5208120;28;20033;-81